createdAt,value
2023-01-11T00:00:02.911Z,65520.16
2023-01-11T00:05:39.476Z,65514.81
2023-01-11T00:10:43.761Z,65509.50
2023-01-11T00:15:49.451Z,65513.66
2023-01-11T00:20:53.626Z,65495.09
2023-01-11T00:25:57.854Z,65462.56
2023-01-11T00:31:03.843Z,65481.31
2023-01-11T00:36:08.992Z,65493.28
2023-01-11T00:41:31.775Z,65485.06
2023-01-11T00:46:54.433Z,65555.97
2023-01-11T00:51:58.785Z,65506.28
2023-01-11T00:57:03.139Z,65479.72
2023-01-11T01:02:09.880Z,65509.28
2023-01-11T01:07:14.230Z,65477.59
2023-01-11T01:12:39.549Z,65488.69
2023-01-11T01:17:48.274Z,65541.47
2023-01-11T01:22:52.777Z,65478.03
2023-01-11T01:27:57.441Z,65491.16
2023-01-11T01:33:03.150Z,65483.28
2023-01-11T01:38:07.149Z,65497.13
2023-01-11T01:43:12.816Z,65464.28
2023-01-11T01:48:23.325Z,65478.56
2023-01-11T01:53:32.308Z,65480.16
2023-01-11T01:58:40.236Z,65503.09
2023-01-11T02:03:46.259Z,65513.31
2023-01-11T02:08:58.218Z,65541.56
2023-01-11T02:14:13.474Z,65518.97
2023-01-11T02:19:30.938Z,65487.00
2023-01-11T02:24:58.020Z,65482.94
2023-01-11T02:30:15.648Z,65504.59
2023-01-11T02:35:27.359Z,65489.66
2023-01-11T02:40:43.015Z,65476.88
2023-01-11T02:45:54.028Z,65471.53
2023-01-11T02:51:05.455Z,65501.50
2023-01-11T02:56:13.562Z,65559.59
2023-01-11T03:01:23.614Z,65589.38
2023-01-11T03:06:33.466Z,65522.91
2023-01-11T03:12:08.366Z,65530.69
2023-01-11T03:17:23.432Z,65583.50
2023-01-11T03:22:39.430Z,65568.56
2023-01-11T03:27:47.418Z,65561.09
2023-01-11T03:32:59.605Z,65524.84
2023-01-11T03:38:08.661Z,65542.53
2023-01-11T03:43:16.169Z,65651.34
2023-01-11T03:48:27.564Z,65628.41
2023-01-11T03:53:36.880Z,65632.59
2023-01-11T03:58:41.122Z,65595.97
2023-01-11T04:03:47.019Z,65664.59
2023-01-11T04:08:51.085Z,65671.63
2023-01-11T04:13:55.362Z,65663.63
2023-01-11T04:19:02.984Z,65572.28
2023-01-11T04:24:07.808Z,65519.63
2023-01-11T04:29:12.361Z,65548.75
2023-01-11T04:34:18.135Z,65654.13
2023-01-11T04:39:22.209Z,65534.00
2023-01-11T04:44:26.685Z,65577.00
2023-01-11T04:49:32.601Z,65699.31
2023-01-11T04:54:36.697Z,65631.59
2023-01-11T04:59:41.140Z,65532.94
2023-01-11T05:04:47.024Z,65557.91
2023-01-11T05:09:50.977Z,65563.34
2023-01-11T05:14:55.205Z,65576.66
2023-01-11T05:20:01.108Z,65669.41
2023-01-11T05:25:06.151Z,65754.75
2023-01-11T05:30:12.061Z,65658.41
2023-01-11T05:35:17.367Z,65779.06
2023-01-11T05:40:22.472Z,65668.44
2023-01-11T05:45:33.659Z,65551.06
2023-01-11T05:50:39.615Z,65560.25
2023-01-11T05:55:52.794Z,65723.88
2023-01-11T06:00:58.193Z,65776.31
2023-01-11T06:06:04.036Z,65794.50
2023-01-11T06:11:08.363Z,65857.56
2023-01-11T06:16:14.883Z,65847.22
2023-01-11T06:21:21.593Z,65829.41
2023-01-11T06:26:25.922Z,65848.91
2023-01-11T06:31:30.169Z,65715.63
2023-01-11T06:36:35.874Z,65708.56
2023-01-11T06:41:40.084Z,65729.94
2023-01-11T06:46:44.517Z,65648.25
2023-01-11T06:51:50.712Z,65753.69
2023-01-11T06:56:56.271Z,65792.81
2023-01-11T07:02:02.413Z,65773.63
2023-01-11T07:07:08.057Z,65629.91
2023-01-11T07:12:12.124Z,65788.72
2023-01-11T07:17:16.815Z,65651.81
2023-01-11T07:22:22.645Z,65711.25
2023-01-11T07:27:27.073Z,65785.38
2023-01-11T07:32:32.285Z,65595.88
2023-01-11T07:37:41.663Z,65557.91
2023-01-11T07:43:07.816Z,65522.72
2023-01-11T07:48:12.734Z,65712.75
2023-01-11T07:53:19.103Z,65741.69
2023-01-11T07:58:23.651Z,65612.31
2023-01-11T08:03:28.241Z,65592.69
2023-01-11T08:08:34.134Z,65626.63
2023-01-11T08:13:55.472Z,65638.56
2023-01-11T08:18:59.727Z,65529.84
2023-01-11T08:24:05.785Z,65515.88
2023-01-11T08:29:10.503Z,65610.09
2023-01-11T08:34:15.737Z,65673.69
2023-01-11T08:39:23.775Z,65611.25
2023-01-11T08:44:35.350Z,65562.69
2023-01-11T08:49:42.993Z,65636.75
2023-01-11T08:54:49.011Z,65773.72
2023-01-11T08:59:53.377Z,65807.31
2023-01-11T09:04:57.655Z,65794.06
2023-01-11T09:10:03.637Z,65920.66
2023-01-11T09:15:09.856Z,65945.34
2023-01-11T09:20:14.365Z,65949.53
2023-01-11T09:25:20.941Z,65960.31
2023-01-11T09:30:25.642Z,65948.03
2023-01-11T09:35:29.871Z,65832.53
2023-01-11T09:40:49.245Z,65896.16
2023-01-11T09:45:56.169Z,65946.34
2023-01-11T09:51:01.742Z,65935.63
2023-01-11T09:56:12.305Z,65870.41
2023-01-11T10:01:24.604Z,65946.97
2023-01-11T10:06:34.849Z,65869.31
2023-01-11T10:18:25.907Z,65988.69
2023-01-11T10:23:04.482Z,66008.94
2023-01-11T10:28:23.133Z,66023.84
2023-01-11T10:33:49.971Z,65998.31
2023-01-11T10:39:12.246Z,65946.88
2023-01-11T10:44:26.865Z,65905.69
2023-01-11T10:49:46.421Z,65887.59
2023-01-11T10:54:54.984Z,65832.44
2023-01-11T11:00:17.770Z,65769.47
2023-01-11T11:05:34.101Z,65836.63
2023-01-11T11:10:48.104Z,65848.56
2023-01-11T11:16:02.451Z,65870.50
2023-01-11T11:21:17.673Z,65924.94
2023-01-11T11:26:23.323Z,65975.41
2023-01-11T11:31:30.429Z,66001.53
2023-01-11T11:36:43.638Z,66041.13
2023-01-11T11:41:50.616Z,65971.38
2023-01-11T11:47:01.059Z,66053.91
2023-01-11T11:52:07.451Z,66067.94
2023-01-11T11:57:18.252Z,66094.16
2023-01-11T12:02:28.948Z,66066.16
2023-01-11T12:07:49.818Z,66095.16
2023-01-11T12:13:00.060Z,66110.78
2023-01-11T12:18:27.092Z,66129.44
2023-01-11T12:23:31.296Z,66109.72
2023-01-11T12:29:04.579Z,66120.50
2023-01-11T12:34:26.907Z,66148.38
2023-01-11T12:39:39.915Z,66149.97
2023-01-11T12:44:59.323Z,66158.34
2023-01-11T12:50:10.977Z,66108.63
2023-01-11T12:55:28.784Z,66147.22
2023-01-11T13:01:08.424Z,66135.84
2023-01-11T13:06:19.904Z,66079.09
2023-01-11T13:11:37.369Z,66081.22
2023-01-11T13:16:49.649Z,66093.00
2023-01-11T13:21:57.716Z,66096.41
2023-01-11T13:27:05.072Z,66075.34
2023-01-11T13:32:17.255Z,66125.16
2023-01-11T13:37:29.104Z,65994.50
2023-01-11T13:42:38.305Z,66051.25
2023-01-11T13:47:46.995Z,65899.25
2023-01-11T13:53:03.535Z,65936.44
2023-01-11T13:58:15.279Z,66006.34
2023-01-11T14:03:30.391Z,66102.13
2023-01-11T14:09:04.536Z,66027.69
2023-01-11T14:14:38.209Z,65980.56
2023-01-11T14:19:48.325Z,66010.09
2023-01-11T14:25:01.077Z,65931.25
2023-01-11T14:30:27.896Z,65998.50
2023-01-11T14:35:49.399Z,65991.72
2023-01-11T14:41:37.257Z,65979.06
2023-01-11T14:47:20.758Z,65946.88
2023-01-11T14:52:39.285Z,65905.25
2023-01-11T14:58:02.559Z,65899.91
2023-01-11T15:03:36.129Z,65886.34
2023-01-11T15:08:45.215Z,65922.28
2023-01-11T15:13:57.346Z,65895.00
2023-01-11T15:19:06.058Z,65950.53
2023-01-11T15:24:23.739Z,65934.66
2023-01-11T15:29:32.556Z,65905.06
2023-01-11T15:34:44.858Z,65796.53
2023-01-11T15:39:58.554Z,65852.75
2023-01-11T15:45:29.455Z,65819.72
2023-01-11T15:51:03.303Z,65797.28
2023-01-11T15:56:44.025Z,65754.50
2023-01-11T16:02:07.953Z,65784.41
2023-01-11T16:07:19.203Z,65883.75
2023-01-11T16:12:44.180Z,65901.41
2023-01-11T16:17:51.002Z,65888.13
2023-01-11T16:22:58.284Z,65876.19
2023-01-11T16:28:03.887Z,65848.56
2023-01-11T16:33:22.815Z,65815.88
2023-01-11T16:38:27.434Z,65878.94
2023-01-11T16:43:34.411Z,65818.00
2023-01-11T16:48:39.986Z,65906.22
2023-01-11T16:53:47.163Z,65877.97
2023-01-11T16:59:09.229Z,65816.41
2023-01-11T17:04:28.206Z,65842.16
2023-01-11T17:09:32.411Z,65806.16
2023-01-11T17:14:55.682Z,65769.81
2023-01-11T17:20:02.563Z,65834.56
2023-01-11T17:25:14.164Z,65782.28
2023-01-11T17:30:20.671Z,65798.97
2023-01-11T17:35:28.057Z,65739.91
2023-01-11T17:40:35.518Z,65822.09
2023-01-11T17:45:40.387Z,65801.53
2023-01-11T17:50:51.336Z,65808.56
2023-01-11T17:55:57.270Z,65730.56
2023-01-11T18:01:22.526Z,65800.03
2023-01-11T18:06:35.538Z,65755.38
2023-01-11T18:11:42.683Z,65712.22
2023-01-11T18:16:58.145Z,65797.28
2023-01-11T18:22:05.501Z,65785.53
2023-01-11T18:27:31.573Z,65784.00
2023-01-11T18:32:38.016Z,65738.84
2023-01-11T18:37:43.566Z,65722.44
2023-01-11T18:42:49.967Z,65742.56
2023-01-11T18:47:54.372Z,65660.34
2023-01-11T18:53:00.097Z,65699.50
2023-01-11T18:58:04.223Z,65713.19
2023-01-11T19:03:11.082Z,65693.97
2023-01-11T19:08:16.873Z,65725.56
2023-01-11T19:13:21.213Z,65715.97
2023-01-11T19:18:25.507Z,65771.50
2023-01-11T19:23:31.244Z,65741.59
2023-01-11T19:28:35.722Z,65682.75
2023-01-11T19:33:41.696Z,65663.75
2023-01-11T19:38:47.395Z,65714.78
2023-01-11T19:43:51.659Z,65727.59
2023-01-11T19:48:56.663Z,65749.69
2023-01-11T19:54:02.145Z,65681.88
2023-01-11T19:59:06.674Z,65748.97
2023-01-11T20:04:12.839Z,65703.78
2023-01-11T20:09:18.756Z,65702.50
2023-01-11T20:14:23.152Z,65655.19
2023-01-11T20:19:27.356Z,65705.81
2023-01-11T20:24:32.951Z,65674.41
2023-01-11T20:29:37.020Z,65701.34
2023-01-11T20:34:41.185Z,65716.50
2023-01-11T20:39:47.008Z,65727.19
2023-01-11T20:44:51.194Z,65717.13
2023-01-11T20:49:55.429Z,65690.88
2023-01-11T20:55:01.118Z,65708.56
2023-01-11T21:00:07.651Z,65603.78
2023-01-11T21:05:12.101Z,65696.22
2023-01-11T21:10:18.024Z,65631.06
2023-01-11T21:15:21.898Z,65697.91
2023-01-11T21:20:26.112Z,65743.28
2023-01-11T21:25:34.801Z,65733.56
2023-01-11T21:30:38.983Z,65742.84
2023-01-11T21:35:43.436Z,65734.63
2023-01-11T21:40:49.317Z,65780.25
2023-01-11T21:45:56.731Z,65805.81
2023-01-11T21:51:01.543Z,65770.09
2023-01-11T21:56:09.055Z,65704.84
2023-01-11T22:01:14.471Z,65758.16
2023-01-11T22:06:18.895Z,65655.19
2023-01-11T22:11:24.474Z,65699.41
2023-01-11T22:16:28.567Z,65745.22
2023-01-11T22:21:32.677Z,65731.13
2023-01-11T22:26:39.125Z,65759.84
2023-01-11T22:31:45.881Z,65762.34
2023-01-11T22:36:50.273Z,65728.88
2023-01-11T22:41:55.844Z,65702.59
2023-01-11T22:47:00.607Z,65684.56
2023-01-11T22:52:06.679Z,65633.75
2023-01-11T22:57:13.445Z,65706.44
2023-01-11T23:02:17.731Z,65701.09
2023-01-11T23:07:22.027Z,65701.63
2023-01-11T23:12:44.775Z,65706.44
2023-01-11T23:17:49.027Z,65712.31
2023-01-11T23:22:53.149Z,65656.78
2023-01-11T23:27:58.717Z,65591.59
2023-01-11T23:33:02.848Z,65605.47
2023-01-11T23:38:07.351Z,65622.44
2023-01-11T23:43:12.848Z,65674.75
2023-01-11T23:48:16.925Z,65651.34
2023-01-11T23:53:23.104Z,65590.53
2023-01-11T23:58:28.850Z,65562.28
